createdAt,value
2023-03-31T00:02:30.121Z,99.84
2023-03-31T00:05:00.136Z,100.00
2023-03-31T00:07:29.970Z,100.00
2023-03-31T00:10:16.547Z,99.63
2023-03-31T00:12:47.975Z,99.88
2023-03-31T00:15:20.357Z,99.47
2023-03-31T00:17:50.148Z,99.55
2023-03-31T00:20:20.244Z,99.02
2023-03-31T00:22:49.963Z,99.33
2023-03-31T00:25:19.977Z,100.00
2023-03-31T00:27:50.550Z,100.00
2023-03-31T00:30:23.172Z,100.00
2023-03-31T00:32:53.497Z,100.00
2023-03-31T00:35:23.633Z,100.00
2023-03-31T00:37:54.022Z,99.96
2023-03-31T00:40:23.804Z,100.00
2023-03-31T00:42:54.311Z,100.00
2023-03-31T00:45:30.273Z,100.00
2023-03-31T00:48:06.273Z,100.00
2023-03-31T00:50:40.271Z,100.00
2023-03-31T00:53:14.438Z,100.00
2023-03-31T00:55:47.801Z,100.00
2023-03-31T00:58:20.418Z,100.00
2023-03-31T01:00:54.274Z,100.00
2023-03-31T01:03:26.643Z,100.00
2023-03-31T01:06:00.466Z,100.00
2023-03-31T01:08:31.284Z,100.00
2023-03-31T01:11:06.494Z,100.00
2023-03-31T01:13:38.864Z,100.00
2023-03-31T01:16:14.890Z,100.00
2023-03-31T01:18:46.398Z,100.00
2023-03-31T01:21:47.384Z,100.00
2023-03-31T01:24:38.151Z,100.00
2023-03-31T01:27:40.054Z,100.00
2023-03-31T01:30:45.158Z,100.00
2023-03-31T01:33:44.999Z,99.97
2023-03-31T01:36:52.362Z,100.00
2023-03-31T01:39:49.216Z,100.00
2023-03-31T01:42:28.462Z,99.69
2023-03-31T01:45:06.151Z,98.68
2023-03-31T01:47:41.171Z,99.12
2023-03-31T01:50:19.116Z,99.39
2023-03-31T01:52:53.351Z,99.04
2023-03-31T01:55:29.974Z,98.58
2023-03-31T01:58:06.043Z,99.27
2023-03-31T02:00:42.233Z,99.70
2023-03-31T02:03:18.159Z,98.67
2023-03-31T02:05:52.992Z,98.82
2023-03-31T02:08:27.260Z,99.19
2023-03-31T02:11:01.790Z,98.73
2023-03-31T02:13:34.674Z,99.20
2023-03-31T02:16:09.834Z,98.16
2023-03-31T02:18:41.951Z,98.65
2023-03-31T02:21:14.787Z,98.90
2023-03-31T02:23:48.238Z,98.03
2023-03-31T02:26:25.658Z,97.92
2023-03-31T02:28:55.693Z,98.47
2023-03-31T02:31:32.158Z,99.03
2023-03-31T02:34:03.120Z,99.72
2023-03-31T02:36:34.564Z,99.76
2023-03-31T02:39:10.473Z,99.36
2023-03-31T02:41:43.059Z,99.77
2023-03-31T02:44:13.347Z,100.00
2023-03-31T02:46:43.874Z,99.80
2023-03-31T02:49:15.473Z,100.00
2023-03-31T02:52:12.168Z,100.00
2023-03-31T02:55:14.410Z,99.46
2023-03-31T02:58:00.328Z,99.79
2023-03-31T03:00:42.606Z,100.00
2023-03-31T03:03:26.350Z,99.87
2023-03-31T03:06:07.006Z,99.54
2023-03-31T03:09:09.283Z,99.49
2023-03-31T03:11:49.894Z,99.85
2023-03-31T03:14:31.162Z,99.17
2023-03-31T03:17:06.195Z,99.57
2023-03-31T03:19:36.016Z,99.51
2023-03-31T03:22:08.739Z,99.59
2023-03-31T03:24:40.099Z,98.65
2023-03-31T03:27:09.844Z,98.43
2023-03-31T03:29:43.041Z,99.01
2023-03-31T03:32:13.065Z,98.93
2023-03-31T03:34:43.237Z,99.18
2023-03-31T03:37:12.974Z,99.73
2023-03-31T03:39:42.724Z,99.54
2023-03-31T03:42:12.483Z,99.49
2023-03-31T03:44:44.834Z,99.37
2023-03-31T03:47:14.546Z,99.29
2023-03-31T03:49:44.261Z,99.35
2023-03-31T03:52:14.016Z,100.00
2023-03-31T03:54:43.734Z,100.00
2023-03-31T03:57:13.709Z,100.00
2023-03-31T03:59:46.123Z,99.86
2023-03-31T04:02:16.400Z,99.96
2023-03-31T04:04:46.205Z,100.00
2023-03-31T04:07:15.944Z,100.00
2023-03-31T04:09:45.716Z,99.86
2023-03-31T04:12:15.470Z,99.83
2023-03-31T04:14:47.935Z,99.25
2023-03-31T04:17:18.033Z,99.00
2023-03-31T04:19:50.982Z,99.35
2023-03-31T04:22:20.778Z,99.73
2023-03-31T04:24:53.027Z,99.54
2023-03-31T04:27:23.215Z,99.49
2023-03-31T04:29:55.612Z,100.00
2023-03-31T04:32:25.812Z,100.00
2023-03-31T04:35:02.958Z,100.00
2023-03-31T04:37:34.942Z,100.00
2023-03-31T04:40:10.112Z,100.00
2023-03-31T04:42:39.890Z,100.00
2023-03-31T04:45:13.273Z,100.00
2023-03-31T04:47:43.694Z,100.00
2023-03-31T04:50:17.016Z,100.00
2023-03-31T04:52:47.864Z,100.00
2023-03-31T04:55:17.945Z,100.00
2023-03-31T04:57:47.702Z,100.00
2023-03-31T05:00:21.980Z,100.00
2023-03-31T05:02:52.096Z,100.00
2023-03-31T05:05:21.946Z,100.00
2023-03-31T05:07:51.671Z,100.00
2023-03-31T05:10:21.979Z,100.00
2023-03-31T05:12:51.820Z,100.00
2023-03-31T05:15:24.783Z,100.00
2023-03-31T05:17:54.587Z,100.00
2023-03-31T05:20:24.398Z,100.00
2023-03-31T05:22:54.165Z,100.00
2023-03-31T05:25:24.282Z,100.00
2023-03-31T05:27:54.055Z,100.00
2023-03-31T05:30:26.443Z,100.00
2023-03-31T05:32:57.222Z,100.00
2023-03-31T05:35:28.393Z,100.00
2023-03-31T05:37:58.133Z,100.00
2023-03-31T05:40:27.878Z,100.00
2023-03-31T05:42:57.656Z,100.00
2023-03-31T05:45:30.033Z,100.00
2023-03-31T05:47:59.821Z,100.00
2023-03-31T05:50:29.746Z,100.00
2023-03-31T05:52:59.938Z,100.00
2023-03-31T05:55:30.783Z,100.00
2023-03-31T05:58:02.195Z,100.00
2023-03-31T06:00:36.175Z,100.00
2023-03-31T06:03:08.098Z,100.00
2023-03-31T06:05:38.286Z,100.00
2023-03-31T06:08:08.371Z,100.00
2023-03-31T06:10:38.104Z,100.00
2023-03-31T06:13:07.816Z,100.00
2023-03-31T06:15:40.289Z,100.00
2023-03-31T06:18:11.000Z,100.00
2023-03-31T06:20:40.880Z,100.00
2023-03-31T06:23:10.584Z,100.00
2023-03-31T06:25:50.785Z,100.00
2023-03-31T06:28:22.333Z,100.00
2023-03-31T06:30:54.805Z,100.00
2023-03-31T06:33:24.864Z,100.00
2023-03-31T06:35:54.907Z,100.00
2023-03-31T06:38:24.895Z,100.00
2023-03-31T06:40:55.141Z,100.00
2023-03-31T06:43:25.540Z,100.00
2023-03-31T06:45:59.059Z,100.00
2023-03-31T06:48:30.371Z,100.00
2023-03-31T06:51:03.837Z,100.00
2023-03-31T06:53:34.004Z,100.00
2023-03-31T06:56:04.579Z,100.00
2023-03-31T06:58:34.856Z,100.00
2023-03-31T07:01:09.208Z,100.00
2023-03-31T07:03:39.543Z,100.00
2023-03-31T07:06:10.147Z,100.00
2023-03-31T07:08:40.177Z,100.00
2023-03-31T07:11:10.567Z,100.00
2023-03-31T07:13:41.028Z,100.00
2023-03-31T07:16:14.401Z,100.00
2023-03-31T07:18:45.466Z,100.00
2023-03-31T07:21:15.498Z,100.00
2023-03-31T07:23:45.595Z,100.00
2023-03-31T07:26:15.783Z,100.00
2023-03-31T07:28:45.828Z,100.00
2023-03-31T07:31:18.368Z,100.00
2023-03-31T07:33:48.089Z,100.00
2023-03-31T07:36:18.163Z,100.00
2023-03-31T07:38:49.939Z,100.00
2023-03-31T07:41:22.316Z,100.00
2023-03-31T07:43:52.876Z,100.00
2023-03-31T07:46:27.732Z,100.00
2023-03-31T07:48:58.985Z,100.00
2023-03-31T07:51:29.752Z,100.00
2023-03-31T07:53:59.475Z,100.00
2023-03-31T07:56:29.263Z,100.00
2023-03-31T07:58:59.091Z,100.00
2023-03-31T08:01:31.435Z,100.00
2023-03-31T08:04:01.457Z,100.00
2023-03-31T08:06:31.554Z,100.00
2023-03-31T08:09:01.770Z,100.00
2023-03-31T08:11:31.730Z,100.00
2023-03-31T08:14:01.689Z,100.00
2023-03-31T08:16:34.067Z,100.00
2023-03-31T08:19:05.019Z,100.00
2023-03-31T08:21:34.800Z,100.00
2023-03-31T08:24:06.098Z,100.00
2023-03-31T08:26:35.823Z,100.00
2023-03-31T08:29:05.666Z,100.00
2023-03-31T08:31:38.064Z,100.00
2023-03-31T08:34:08.807Z,100.00
2023-03-31T08:36:38.621Z,100.00
2023-03-31T08:39:08.391Z,100.00
2023-03-31T08:41:50.192Z,100.00
2023-03-31T08:44:25.021Z,100.00
2023-03-31T08:46:59.402Z,100.00
2023-03-31T08:49:31.030Z,100.00
2023-03-31T08:52:05.247Z,100.00
2023-03-31T08:54:37.064Z,100.00
2023-03-31T08:57:13.804Z,100.00
2023-03-31T08:59:44.676Z,100.00
2023-03-31T09:02:24.881Z,100.00
2023-03-31T09:05:17.719Z,100.00
2023-03-31T09:07:56.343Z,100.00
2023-03-31T09:10:42.314Z,100.00
2023-03-31T09:13:27.204Z,100.00
2023-03-31T09:16:02.608Z,100.00
2023-03-31T09:18:36.754Z,100.00
2023-03-31T09:21:15.144Z,100.00
2023-03-31T09:23:49.674Z,100.00
2023-03-31T09:26:27.906Z,100.00
2023-03-31T09:29:01.312Z,100.00
2023-03-31T09:31:31.772Z,100.00
2023-03-31T09:34:13.108Z,100.00
2023-03-31T09:36:43.067Z,100.00
2023-03-31T09:39:16.778Z,100.00
2023-03-31T09:41:49.442Z,100.00
2023-03-31T09:44:27.739Z,100.00
2023-03-31T09:46:58.731Z,100.00
2023-03-31T09:49:36.559Z,100.00
2023-03-31T09:52:09.852Z,100.00
2023-03-31T09:54:44.292Z,100.00
2023-03-31T09:57:19.246Z,100.00
2023-03-31T09:59:53.594Z,100.00
2023-03-31T10:02:38.136Z,100.00
2023-03-31T10:05:29.263Z,100.00
2023-03-31T10:08:37.082Z,100.00
2023-03-31T10:11:12.927Z,100.00
2023-03-31T10:13:48.816Z,100.00
2023-03-31T10:16:26.356Z,100.00
2023-03-31T10:18:57.503Z,100.00
2023-03-31T10:21:31.441Z,100.00
2023-03-31T10:24:03.186Z,100.00
2023-03-31T10:26:35.716Z,100.00
2023-03-31T10:29:13.083Z,100.00
2023-03-31T10:31:43.247Z,100.00
2023-03-31T10:34:19.615Z,100.00
2023-03-31T10:36:54.961Z,100.00
2023-03-31T10:39:32.073Z,100.00
2023-03-31T10:42:02.739Z,100.00
2023-03-31T10:44:35.687Z,100.00
2023-03-31T10:47:22.642Z,100.00
2023-03-31T10:49:54.679Z,100.00
2023-03-31T10:52:28.654Z,100.00
2023-03-31T10:55:01.867Z,100.00
2023-03-31T10:57:43.128Z,100.00
2023-03-31T11:00:25.442Z,100.00
2023-03-31T11:03:24.552Z,100.00
2023-03-31T11:05:57.760Z,100.00
2023-03-31T11:08:49.172Z,100.00
2023-03-31T11:11:30.198Z,100.00
2023-03-31T11:14:09.329Z,100.00
2023-03-31T11:16:48.889Z,100.00
2023-03-31T11:19:29.988Z,100.00
2023-03-31T11:22:10.021Z,100.00
2023-03-31T11:25:06.230Z,100.00
2023-03-31T11:27:53.162Z,100.00
2023-03-31T11:30:27.440Z,100.00
2023-03-31T11:33:08.498Z,100.00
2023-03-31T11:35:48.061Z,100.00
2023-03-31T11:38:32.092Z,100.00
2023-03-31T11:41:08.258Z,100.00
2023-03-31T11:43:42.870Z,100.00
2023-03-31T11:46:16.297Z,100.00
2023-03-31T11:48:50.790Z,100.00
2023-03-31T11:51:25.874Z,100.00
2023-03-31T11:53:58.524Z,100.00
2023-03-31T11:56:36.324Z,100.00
2023-03-31T11:59:07.178Z,100.00
2023-03-31T12:01:43.840Z,100.00
2023-03-31T12:04:27.251Z,100.00
2023-03-31T12:07:03.816Z,100.00
2023-03-31T12:09:41.269Z,100.00
2023-03-31T12:12:20.065Z,100.00
2023-03-31T12:14:54.664Z,100.00
2023-03-31T12:17:29.666Z,100.00
2023-03-31T12:20:02.685Z,100.00
2023-03-31T12:22:36.911Z,100.00
2023-03-31T12:25:07.454Z,100.00
2023-03-31T12:27:43.131Z,100.00
2023-03-31T12:30:18.829Z,100.00
2023-03-31T12:32:52.207Z,100.00
2023-03-31T12:35:27.546Z,100.00
2023-03-31T12:38:16.736Z,100.00
2023-03-31T12:40:57.690Z,100.00
2023-03-31T12:43:49.660Z,100.00
2023-03-31T12:46:32.380Z,100.00
2023-03-31T12:49:18.578Z,99.34
2023-03-31T12:52:06.767Z,97.75
2023-03-31T12:54:59.423Z,98.16
2023-03-31T12:57:30.097Z,98.38
2023-03-31T13:00:27.921Z,98.63
2023-03-31T13:03:28.656Z,99.44
2023-03-31T13:05:58.511Z,100.00
2023-03-31T13:08:53.588Z,99.63
2023-03-31T13:11:25.990Z,99.67
2023-03-31T13:14:02.987Z,99.08
2023-03-31T13:16:37.859Z,98.85
2023-03-31T13:19:08.088Z,97.65
2023-03-31T13:21:56.395Z,95.38
2023-03-31T13:24:27.150Z,94.84
2023-03-31T13:26:59.537Z,94.82
2023-03-31T13:29:43.064Z,94.31
2023-03-31T13:32:26.372Z,93.27
2023-03-31T13:35:01.291Z,92.83
2023-03-31T13:37:49.630Z,90.94
2023-03-31T13:40:33.629Z,91.30
2023-03-31T13:43:48.052Z,85.96
2023-03-31T13:46:42.223Z,89.01
2023-03-31T13:49:40.742Z,88.75
2023-03-31T13:52:14.102Z,89.74
2023-03-31T13:55:22.715Z,90.37
2023-03-31T13:58:33.487Z,91.23
2023-03-31T14:01:28.831Z,91.99
2023-03-31T14:04:10.704Z,90.51
2023-03-31T14:06:48.003Z,90.65
2023-03-31T14:09:24.934Z,90.95
2023-03-31T14:11:54.850Z,93.80
2023-03-31T14:14:24.628Z,94.93
2023-03-31T14:16:58.365Z,95.28
2023-03-31T14:20:00.753Z,96.55
2023-03-31T14:22:49.670Z,97.36
2023-03-31T14:25:30.870Z,96.39
2023-03-31T14:28:08.711Z,96.74
2023-03-31T14:30:47.053Z,98.44
2023-03-31T14:33:35.267Z,99.86
2023-03-31T14:36:16.068Z,100.00
2023-03-31T14:38:48.874Z,100.00
2023-03-31T14:41:29.963Z,100.00
2023-03-31T14:44:05.016Z,100.00
2023-03-31T14:46:39.254Z,100.00
2023-03-31T14:49:22.400Z,100.00
2023-03-31T14:51:54.789Z,100.00
2023-03-31T14:54:27.200Z,100.00
2023-03-31T14:57:00.056Z,100.00
2023-03-31T14:59:33.095Z,100.00
2023-03-31T15:02:04.827Z,100.00
2023-03-31T15:04:46.719Z,100.00
2023-03-31T15:07:18.364Z,100.00
2023-03-31T15:09:53.715Z,100.00
2023-03-31T15:12:26.174Z,100.00
2023-03-31T15:15:00.176Z,100.00
2023-03-31T15:17:34.380Z,100.00
2023-03-31T15:20:23.485Z,100.00
2023-03-31T15:22:53.635Z,100.00
2023-03-31T15:25:29.141Z,100.00
2023-03-31T15:28:03.263Z,100.00
2023-03-31T15:30:35.608Z,100.00
2023-03-31T15:33:19.049Z,100.00
2023-03-31T15:35:49.746Z,100.00
2023-03-31T15:38:20.643Z,100.00
2023-03-31T15:40:57.845Z,100.00
2023-03-31T15:43:32.754Z,100.00
2023-03-31T15:46:03.881Z,100.00
2023-03-31T15:48:37.183Z,100.00
2023-03-31T15:51:20.611Z,100.00
2023-03-31T15:53:53.472Z,100.00
2023-03-31T15:56:38.319Z,100.00
2023-03-31T15:59:08.904Z,100.00
2023-03-31T16:01:42.660Z,100.00
2023-03-31T16:04:15.695Z,100.00
2023-03-31T16:06:49.043Z,100.00
2023-03-31T16:09:24.144Z,100.00
2023-03-31T16:11:59.358Z,100.00
2023-03-31T16:14:33.275Z,100.00
2023-03-31T16:17:07.020Z,100.00
2023-03-31T16:19:44.555Z,100.00
2023-03-31T16:22:19.698Z,100.00
2023-03-31T16:24:49.817Z,100.00
2023-03-31T16:27:22.247Z,100.00
2023-03-31T16:29:52.038Z,100.00
2023-03-31T16:32:22.357Z,100.00
2023-03-31T16:34:59.295Z,100.00
2023-03-31T16:37:29.308Z,100.00
2023-03-31T16:39:59.603Z,100.00
2023-03-31T16:42:31.988Z,100.00
2023-03-31T16:45:13.699Z,100.00
2023-03-31T16:47:45.752Z,100.00
2023-03-31T16:50:15.987Z,100.00
2023-03-31T16:52:47.378Z,100.00
2023-03-31T16:55:17.243Z,100.00
2023-03-31T16:57:49.913Z,100.00
2023-03-31T17:00:20.722Z,100.00
2023-03-31T17:02:50.623Z,100.00
2023-03-31T17:05:21.032Z,100.00
2023-03-31T17:07:50.772Z,100.00
2023-03-31T17:10:20.780Z,100.00
2023-03-31T17:12:53.180Z,100.00
2023-03-31T17:15:23.637Z,100.00
2023-03-31T17:17:53.502Z,100.00
2023-03-31T17:20:23.572Z,100.00
2023-03-31T17:22:53.375Z,99.99
2023-03-31T17:25:23.854Z,99.84
2023-03-31T17:27:56.427Z,99.48
2023-03-31T17:30:27.717Z,99.98
2023-03-31T17:32:57.555Z,98.59
2023-03-31T17:35:27.644Z,98.51
2023-03-31T17:37:57.493Z,98.71
2023-03-31T17:40:28.198Z,99.29
2023-03-31T17:43:00.667Z,99.23
2023-03-31T17:45:30.928Z,100.00
2023-03-31T17:48:01.066Z,100.00
2023-03-31T17:50:31.348Z,100.00
2023-03-31T17:53:01.658Z,100.00
2023-03-31T17:55:31.556Z,100.00
2023-03-31T17:58:03.933Z,99.86
2023-03-31T18:00:33.965Z,100.00
2023-03-31T18:03:03.780Z,100.00
2023-03-31T18:05:34.501Z,100.00
2023-03-31T18:08:04.224Z,100.00
2023-03-31T18:10:34.555Z,100.00
2023-03-31T18:13:07.510Z,100.00
2023-03-31T18:15:37.960Z,100.00
2023-03-31T18:18:08.722Z,100.00
2023-03-31T18:20:38.485Z,100.00
2023-03-31T18:23:08.202Z,100.00
2023-03-31T18:25:38.370Z,100.00
2023-03-31T18:28:10.914Z,100.00
2023-03-31T18:30:41.330Z,100.00
2023-03-31T18:33:11.164Z,100.00
2023-03-31T18:35:41.379Z,100.00
2023-03-31T18:38:11.322Z,100.00
2023-03-31T18:40:41.098Z,100.00
2023-03-31T18:43:13.402Z,100.00
2023-03-31T18:45:43.118Z,100.00
2023-03-31T18:48:12.936Z,100.00
2023-03-31T18:50:42.940Z,100.00
2023-03-31T18:53:13.399Z,100.00
2023-03-31T18:55:43.267Z,100.00
2023-03-31T18:58:15.584Z,100.00
2023-03-31T19:00:45.508Z,100.00
2023-03-31T19:03:15.777Z,100.00
2023-03-31T19:05:45.579Z,100.00
2023-03-31T19:08:15.742Z,100.00
2023-03-31T19:10:45.481Z,100.00
2023-03-31T19:13:18.815Z,100.00
2023-03-31T19:15:48.710Z,100.00
2023-03-31T19:18:18.402Z,100.00
2023-03-31T19:20:49.553Z,100.00
2023-03-31T19:23:19.306Z,100.00
2023-03-31T19:25:49.161Z,100.00
2023-03-31T19:28:21.466Z,100.00
2023-03-31T19:30:51.937Z,100.00
2023-03-31T19:33:21.906Z,100.00
2023-03-31T19:35:51.845Z,100.00
2023-03-31T19:38:21.988Z,100.00
2023-03-31T19:40:52.101Z,100.00
2023-03-31T19:43:29.304Z,100.00
2023-03-31T19:46:00.500Z,100.00
2023-03-31T19:48:34.265Z,100.00
2023-03-31T19:51:08.584Z,100.00
2023-03-31T19:53:41.900Z,100.00
2023-03-31T19:56:13.596Z,100.00
2023-03-31T19:58:47.211Z,100.00
2023-03-31T20:01:20.417Z,100.00
2023-03-31T20:03:53.215Z,100.00
2023-03-31T20:06:25.413Z,100.00
2023-03-31T20:08:56.304Z,100.00
2023-03-31T20:11:27.095Z,100.00
2023-03-31T20:13:59.611Z,100.00
2023-03-31T20:16:31.591Z,100.00
2023-03-31T20:19:04.349Z,100.00
2023-03-31T20:21:39.918Z,100.00
2023-03-31T20:24:10.574Z,100.00
2023-03-31T20:26:40.302Z,100.00
2023-03-31T20:29:13.258Z,100.00
2023-03-31T20:31:43.686Z,100.00
2023-03-31T20:34:16.839Z,100.00
2023-03-31T20:36:49.334Z,100.00
2023-03-31T20:39:20.054Z,100.00
2023-03-31T20:41:50.649Z,100.00
2023-03-31T20:44:22.938Z,100.00
2023-03-31T20:46:52.755Z,100.00
2023-03-31T20:49:22.493Z,100.00
2023-03-31T20:51:52.210Z,100.00
2023-03-31T20:54:22.454Z,100.00
2023-03-31T20:56:52.608Z,100.00
2023-03-31T20:59:25.093Z,100.00
2023-03-31T21:01:54.862Z,100.00
2023-03-31T21:04:24.727Z,100.00
2023-03-31T21:06:54.467Z,100.00
2023-03-31T21:09:24.218Z,100.00
2023-03-31T21:11:54.335Z,100.00
2023-03-31T21:14:27.251Z,100.00
2023-03-31T21:16:57.080Z,100.00
2023-03-31T21:19:27.317Z,100.00
2023-03-31T21:21:57.074Z,100.00
2023-03-31T21:24:27.809Z,100.00
2023-03-31T21:26:57.563Z,100.00
2023-03-31T21:29:29.899Z,100.00
2023-03-31T21:32:00.672Z,100.00
2023-03-31T21:34:30.755Z,100.00
2023-03-31T21:37:01.695Z,100.00
2023-03-31T21:39:31.420Z,100.00
2023-03-31T21:42:01.151Z,100.00
2023-03-31T21:44:33.794Z,100.00
2023-03-31T21:47:03.512Z,100.00
2023-03-31T21:49:33.878Z,100.00
2023-03-31T21:52:04.687Z,100.00
2023-03-31T21:54:34.388Z,100.00
2023-03-31T21:57:04.226Z,100.00
2023-03-31T21:59:36.865Z,100.00
2023-03-31T22:02:07.193Z,100.00
2023-03-31T22:04:36.989Z,100.00
2023-03-31T22:07:06.719Z,100.00
2023-03-31T22:09:37.402Z,100.00
2023-03-31T22:12:07.345Z,100.00
2023-03-31T22:14:41.696Z,100.00
2023-03-31T22:17:11.418Z,100.00
2023-03-31T22:19:41.775Z,100.00
2023-03-31T22:22:11.663Z,100.00
2023-03-31T22:24:41.581Z,100.00
2023-03-31T22:27:11.500Z,100.00
2023-03-31T22:29:44.363Z,100.00
2023-03-31T22:32:19.955Z,100.00
2023-03-31T22:34:50.683Z,100.00
2023-03-31T22:37:20.628Z,100.00
2023-03-31T22:39:50.370Z,100.00
2023-03-31T22:42:20.084Z,100.00
2023-03-31T22:44:52.427Z,100.00
2023-03-31T22:47:22.231Z,100.00
2023-03-31T22:49:51.976Z,100.00
2023-03-31T22:52:21.746Z,100.00
2023-03-31T22:54:51.850Z,100.00
2023-03-31T22:57:22.058Z,100.00
2023-03-31T22:59:54.382Z,100.00
2023-03-31T23:02:25.080Z,100.00
2023-03-31T23:04:54.876Z,100.00
2023-03-31T23:07:24.637Z,100.00
2023-03-31T23:09:54.375Z,100.00
2023-03-31T23:12:24.113Z,100.00
2023-03-31T23:14:56.651Z,100.00
2023-03-31T23:17:26.667Z,100.00
2023-03-31T23:19:56.944Z,100.00
2023-03-31T23:22:27.801Z,100.00
2023-03-31T23:24:57.594Z,100.00
2023-03-31T23:27:27.431Z,100.00
2023-03-31T23:29:59.817Z,100.00
2023-03-31T23:32:29.560Z,100.00
2023-03-31T23:34:59.294Z,100.00
2023-03-31T23:37:29.045Z,100.00
2023-03-31T23:39:58.804Z,100.00
2023-03-31T23:42:28.546Z,100.00
2023-03-31T23:45:00.892Z,100.00
2023-03-31T23:47:30.687Z,100.00
2023-03-31T23:50:01.345Z,100.00
2023-03-31T23:52:31.117Z,100.00
2023-03-31T23:55:01.076Z,100.00
2023-03-31T23:57:31.271Z,100.00
